Time;durP1;ratioP1;P1;durP2;ratioP2;P2;SDS_P1;SDS_P2;PMS_P1;PMS_P2;Temp;Humidity;BMP_temperature;BMP_pressure;BME280_temperature;BME280_humidity;BME280_pressure;Samples;Min_cycle;Max_cycle;Signal;HPM_P1;HPM_P2
2022/03/27 00:01:01;;;;;;;2.03;1.35;;;22.00;56.70;;;;;;4912953;29;20248;-51
2022/03/27 00:03:32;;;;;;;3.67;1.38;;;22.00;56.60;;;;;;4913800;29;20196;-55
2022/03/27 00:06:02;;;;;;;2.30;1.40;;;22.10;56.70;;;;;;4913677;29;20203;-52
2022/03/27 00:08:35;;;;;;;2.50;1.40;;;22.10;56.70;;;;;;4913546;29;20236;-49
2022/03/27 00:13:52;;;;;;;2.15;1.17;;;22.10;56.70;;;;;;4916291;29;20251;-48
2022/03/27 00:16:22;;;;;;;1.85;1.27;;;22.10;56.70;;;;;;4932187;29;20195;-49
2022/03/27 00:18:53;;;;;;;1.55;1.10;;;22.20;56.70;;;;;;4929410;29;20271;-51
2022/03/27 00:21:24;;;;;;;1.98;1.10;;;22.20;56.70;;;;;;4932491;29;20199;-53
2022/03/27 00:23:57;;;;;;;1.40;1.25;;;22.20;56.60;;;;;;4932876;29;20262;-51
2022/03/27 00:26:27;;;;;;;2.17;1.30;;;22.20;56.60;;;;;;4932645;29;20195;-54
2022/03/27 00:28:58;;;;;;;1.90;1.33;;;22.30;56.60;;;;;;4931878;29;20287;-54
2022/03/27 00:31:35;;;;;;;2.17;1.50;;;22.30;56.60;;;;;;4932625;29;20196;-49
2022/03/27 00:34:06;;;;;;;2.80;1.77;;;22.30;56.60;;;;;;4944482;23;20326;-55
2022/03/27 00:36:37;;;;;;;2.65;1.33;;;22.30;56.50;;;;;;4931861;29;20196;-60
2022/03/27 00:39:09;;;;;;;2.67;1.20;;;22.40;56.60;;;;;;4932445;29;20203;-59
2022/03/27 00:41:40;;;;;;;1.73;1.30;;;22.40;56.60;;;;;;4932468;29;20204;-57
2022/03/27 00:44:11;;;;;;;1.63;1.30;;;22.40;56.60;;;;;;4931790;29;20644;-57
2022/03/27 00:46:44;;;;;;;1.77;1.27;;;22.50;56.60;;;;;;4932984;29;20642;-58
2022/03/27 00:49:14;;;;;;;1.92;1.35;;;22.50;56.60;;;;;;4935905;29;20199;-58
2022/03/27 00:51:45;;;;;;;3.28;1.58;;;22.50;56.60;;;;;;4935537;29;20247;-59
2022/03/27 00:54:17;;;;;;;2.15;1.33;;;22.50;57.20;;;;;;4916297;29;20204;-56
2022/03/27 00:56:48;;;;;;;2.90;1.40;;;22.60;56.50;;;;;;4916096;29;20256;-58
2022/03/27 00:59:18;;;;;;;1.58;1.10;;;22.60;56.50;;;;;;4920730;29;20609;-56
2022/03/27 01:01:49;;;;;;;2.38;1.50;;;22.60;56.50;;;;;;4936107;29;20617;-55
2022/03/27 01:04:20;;;;;;;2.75;1.35;;;22.60;56.50;;;;;;4935877;29;20299;-56
2022/03/27 01:06:50;;;;;;;1.60;1.30;;;22.70;56.50;;;;;;4935518;29;20204;-54
2022/03/27 01:09:38;;;;;;;2.97;1.45;;;22.70;56.50;;;;;;4935272;29;20204;-58
2022/03/27 01:12:30;;;;;;;2.58;1.55;;;22.70;56.50;;;;;;4935293;29;20207;-58
2022/03/27 01:15:03;;;;;;;2.15;1.38;;;22.80;56.40;;;;;;4934917;29;20200;-56
2022/03/27 01:17:35;;;;;;;1.45;1.20;;;22.80;56.40;;;;;;4921276;29;20685;-60
2022/03/27 01:20:08;;;;;;;2.05;1.50;;;22.80;56.40;;;;;;4915805;29;20736;-58
2022/03/27 01:22:42;;;;;;;1.27;1.17;;;22.90;56.40;;;;;;4915711;29;20295;-57
2022/03/27 01:25:13;;;;;;;1.95;1.40;;;22.90;56.30;;;;;;4916082;29;20204;-55
2022/03/27 01:27:44;;;;;;;2.00;1.17;;;22.90;56.30;;;;;;4916010;29;20785;-57
2022/03/27 01:30:15;;;;;;;2.97;1.50;;;23.00;56.20;;;;;;4925825;29;20247;-59
2022/03/27 01:32:45;;;;;;;1.95;1.30;;;23.00;56.20;;;;;;4934930;29;20239;-54
2022/03/27 01:35:18;;;;;;;2.35;1.50;;;23.00;56.10;;;;;;4946629;23;20228;-63
2022/03/27 01:37:48;;;;;;;2.67;1.40;;;23.00;56.10;;;;;;4935087;29;20274;-63
2022/03/27 01:40:19;;;;;;;2.28;1.50;;;23.00;56.00;;;;;;4935322;29;20196;-62
2022/03/27 01:42:53;;;;;;;2.45;1.60;;;23.00;56.00;;;;;;4935257;29;20275;-58
2022/03/27 01:45:23;;;;;;;2.85;1.60;;;23.10;56.00;;;;;;4945584;29;20199;-62
2022/03/27 01:47:54;;;;;;;2.85;1.60;;;23.10;55.90;;;;;;4954098;28;20273;-63
2022/03/27 01:50:26;;;;;;;2.38;1.45;;;23.10;55.80;;;;;;4953953;28;20202;-59
2022/03/27 01:52:57;;;;;;;2.47;1.50;;;23.10;55.80;;;;;;4953795;28;20277;-61
2022/03/27 01:55:28;;;;;;;3.75;1.50;;;23.20;55.90;;;;;;4952518;28;20199;-62
2022/03/27 01:57:58;;;;;;;2.10;1.58;;;23.20;55.80;;;;;;4953230;28;20238;-62
2022/03/27 02:00:29;;;;;;;3.85;1.52;;;23.20;55.80;;;;;;4953445;28;20753;-60
2022/03/27 02:02:59;;;;;;;3.53;1.70;;;23.20;55.80;;;;;;4953878;28;20648;-59
2022/03/27 02:05:32;;;;;;;1.92;1.40;;;23.30;55.80;;;;;;4953361;28;20201;-62
2022/03/27 02:08:03;;;;;;;1.40;1.30;;;23.30;55.70;;;;;;4949981;28;20219;-64
2022/03/27 02:10:34;;;;;;;2.42;1.55;;;23.30;55.80;;;;;;4953169;28;20699;-61
2022/03/27 02:13:04;;;;;;;2.97;1.88;;;23.30;55.70;;;;;;4953573;28;20442;-61
2022/03/27 02:15:35;;;;;;;4.00;1.70;;;23.40;55.70;;;;;;4942299;28;20238;-50
2022/03/27 02:18:05;;;;;;;2.28;1.55;;;23.40;55.60;;;;;;4943296;29;20316;-65
2022/03/27 02:20:39;;;;;;;2.63;1.48;;;23.40;55.50;;;;;;4952943;28;20257;-60
2022/03/27 02:23:11;;;;;;;3.92;1.90;;;23.40;55.40;;;;;;4949971;28;20541;-58
2022/03/27 02:25:41;;;;;;;2.40;1.48;;;23.50;55.40;;;;;;4953263;28;20198;-62
2022/03/27 02:28:12;;;;;;;2.20;1.42;;;23.50;55.40;;;;;;4953180;28;20219;-62
2022/03/27 02:30:43;;;;;;;2.80;1.45;;;23.50;55.40;;;;;;4952286;28;20254;-63
2022/03/27 02:35:55;;;;;;;2.35;1.40;;;23.50;55.50;;;;;;4931851;29;20226;-61
2022/03/27 02:38:26;;;;;;;3.40;1.60;;;23.60;55.60;;;;;;4919221;29;20224;-63
2022/03/27 02:40:57;;;;;;;2.75;1.23;;;23.60;55.50;;;;;;4914490;29;20204;-62
2022/03/27 02:43:27;;;;;;;3.08;1.40;;;23.70;55.50;;;;;;4914876;29;20264;-62
2022/03/27 02:45:58;;;;;;;1.88;1.70;;;23.70;55.50;;;;;;4914605;29;20257;-62
2022/03/27 02:48:29;;;;;;;2.97;1.35;;;23.70;55.50;;;;;;4915118;29;20692;-62
2022/03/27 02:51:01;;;;;;;2.80;1.20;;;23.70;55.40;;;;;;4914771;29;20204;-59
2022/03/27 02:53:31;;;;;;;3.53;1.17;;;23.80;55.40;;;;;;4901680;29;20269;-59
2022/03/27 02:56:03;;;;;;;3.42;1.40;;;23.80;55.30;;;;;;4896167;29;20284;-59
2022/03/27 02:58:34;;;;;;;3.67;1.38;;;23.80;55.20;;;;;;4895543;29;20272;-61
2022/03/27 03:01:05;;;;;;;1.98;1.20;;;23.90;55.10;;;;;;4907843;29;20268;-63
2022/03/27 03:03:35;;;;;;;2.75;1.45;;;23.90;54.90;;;;;;4914588;29;20202;-62
2022/03/27 03:06:09;;;;;;;1.38;1.17;;;23.90;54.90;;;;;;4914485;29;20658;-62
2022/03/27 03:08:40;;;;;;;2.53;1.20;;;24.00;54.60;;;;;;4914276;29;20224;-61
2022/03/27 03:11:13;;;;;;;4.15;1.27;;;24.00;54.70;;;;;;4914012;29;20234;-61
2022/03/27 03:13:44;;;;;;;2.90;1.17;;;24.00;54.60;;;;;;4914346;29;20292;-61
2022/03/27 03:16:17;;;;;;;1.77;1.20;;;24.00;54.60;;;;;;4914117;29;20200;-61
2022/03/27 03:18:47;;;;;;;2.13;1.33;;;24.00;54.60;;;;;;4914299;29;20769;-61
2022/03/27 03:21:21;;;;;;;2.35;1.08;;;24.00;54.50;;;;;;4913948;29;20255;-61
2022/03/27 03:23:51;;;;;;;4.35;1.23;;;24.10;54.50;;;;;;4898501;29;20715;-61
2022/03/27 03:26:22;;;;;;;2.72;1.17;;;24.10;54.60;;;;;;4895316;29;20201;-61
2022/03/27 03:28:52;;;;;;;3.50;1.20;;;24.10;54.50;;;;;;4895170;29;20276;-61
2022/03/27 03:31:23;;;;;;;2.72;1.10;;;24.10;54.40;;;;;;4908324;29;20204;-61
2022/03/27 03:33:54;;;;;;;1.50;1.10;;;24.20;54.30;;;;;;4929362;23;20235;-60
2022/03/27 03:36:27;;;;;;;1.73;1.00;;;24.20;54.40;;;;;;4933109;29;20195;-62
2022/03/27 03:38:57;;;;;;;1.65;1.15;;;24.20;54.30;;;;;;4932888;29;20237;-62
2022/03/27 03:41:28;;;;;;;1.67;1.23;;;24.20;54.30;;;;;;4933078;29;20239;-53
2022/03/27 03:43:59;;;;;;;2.08;1.00;;;24.20;54.30;;;;;;4933007;29;20204;-58
2022/03/27 03:46:29;;;;;;;1.13;1.00;;;24.20;54.30;;;;;;4932162;29;20270;-57
2022/03/27 03:49:00;;;;;;;1.67;1.15;;;24.30;54.30;;;;;;4932277;29;20326;-59
2022/03/27 03:51:32;;;;;;;1.50;1.05;;;24.30;54.80;;;;;;4932299;29;20207;-57
2022/03/27 03:54:03;;;;;;;1.70;1.00;;;24.30;54.20;;;;;;4932648;29;20207;-57
2022/03/27 03:56:33;;;;;;;2.60;1.13;;;24.30;54.10;;;;;;4932556;29;20254;-58
2022/03/27 03:59:04;;;;;;;2.92;1.05;;;24.30;54.00;;;;;;4932850;29;20290;-56
2022/03/27 04:01:34;;;;;;;1.77;1.17;;;24.30;54.00;;;;;;4932234;29;20207;-57
2022/03/27 04:04:05;;;;;;;1.83;1.05;;;24.30;53.80;;;;;;4932353;29;20227;-55
2022/03/27 04:06:38;;;;;;;1.58;0.70;;;24.40;53.50;;;;;;4932055;29;20254;-59
2022/03/27 04:09:08;;;;;;;4.15;1.25;;;24.40;53.00;;;;;;4932572;29;20215;-60
2022/03/27 04:11:39;;;;;;;2.28;1.00;;;24.40;52.80;;;;;;4932768;29;20207;-63
2022/03/27 04:14:11;;;;;;;3.42;1.00;;;24.40;52.80;;;;;;4932537;29;20203;-68
2022/03/27 04:16:45;;;;;;;6.30;1.13;;;24.40;52.90;;;;;;4931864;29;20200;-67
2022/03/27 04:19:15;;;;;;;2.75;0.85;;;24.40;53.00;;;;;;4932762;29;20703;-64
2022/03/27 04:21:48;;;;;;;3.13;1.02;;;24.40;53.00;;;;;;4935116;29;20196;-69
2022/03/27 04:24:18;;;;;;;2.60;1.08;;;24.40;53.10;;;;;;4936496;29;20195;-69
2022/03/27 04:26:49;;;;;;;3.95;1.20;;;24.40;53.00;;;;;;4936488;29;20203;-63
2022/03/27 04:29:20;;;;;;;3.25;1.25;;;24.40;53.10;;;;;;4936713;29;20195;-67
2022/03/27 04:31:51;;;;;;;1.88;1.02;;;24.40;53.20;;;;;;4936325;29;20227;-67
2022/03/27 04:34:21;;;;;;;2.78;0.93;;;24.40;53.20;;;;;;4947392;23;20218;-59
2022/03/27 04:36:54;;;;;;;2.33;1.08;;;24.50;53.30;;;;;;4935460;29;20203;-58
2022/03/27 04:39:25;;;;;;;1.88;1.08;;;24.50;53.20;;;;;;4936050;29;20224;-59
2022/03/27 04:41:55;;;;;;;1.42;0.82;;;24.50;53.00;;;;;;4936112;29;20727;-59
2022/03/27 04:44:26;;;;;;;2.30;0.73;;;24.50;53.30;;;;;;4936032;29;20606;-58
2022/03/27 04:46:56;;;;;;;3.60;1.10;;;24.50;53.10;;;;;;4935022;29;20227;-60
2022/03/27 04:49:27;;;;;;;1.65;1.00;;;24.50;53.10;;;;;;4933014;29;20235;-60
2022/03/27 04:51:59;;;;;;;3.03;1.10;;;24.50;53.20;;;;;;4932289;29;20266;-60
2022/03/27 04:54:32;;;;;;;3.53;0.90;;;24.50;53.20;;;;;;4934670;29;20243;-60
2022/03/27 04:57:02;;;;;;;2.65;0.90;;;24.50;53.20;;;;;;4934768;29;20220;-58
2022/03/27 04:59:33;;;;;;;2.20;1.27;;;24.60;53.20;;;;;;4933794;29;20230;-60
2022/03/27 05:02:05;;;;;;;1.40;1.00;;;24.50;53.00;;;;;;4933442;29;20536;-59
2022/03/27 05:04:37;;;;;;;1.52;0.80;;;24.60;53.00;;;;;;4934504;29;20243;-58
2022/03/27 05:07:10;;;;;;;1.30;0.98;;;24.60;53.00;;;;;;4934021;29;20246;-59
2022/03/27 05:09:40;;;;;;;1.92;0.80;;;24.60;52.80;;;;;;4934127;29;20669;-61
2022/03/27 05:12:12;;;;;;;1.98;0.80;;;24.60;52.80;;;;;;4934418;29;20207;-61
2022/03/27 05:14:42;;;;;;;2.75;0.80;;;24.60;52.70;;;;;;4933069;29;20239;-60
2022/03/27 05:17:13;;;;;;;2.10;0.80;;;24.60;52.70;;;;;;4933982;29;20255;-60
2022/03/27 05:19:44;;;;;;;1.08;0.70;;;24.60;52.50;;;;;;4933241;29;20286;-61
2022/03/27 05:22:16;;;;;;;1.10;0.80;;;24.60;52.50;;;;;;4933742;29;20195;-60
2022/03/27 05:24:47;;;;;;;1.48;1.00;;;24.60;52.50;;;;;;4933533;29;20204;-60
2022/03/27 05:27:21;;;;;;;1.63;0.80;;;24.60;52.50;;;;;;4933050;29;20224;-60
2022/03/27 05:29:51;;;;;;;1.88;0.90;;;24.60;52.50;;;;;;4933762;29;20663;-60
2022/03/27 05:32:22;;;;;;;1.23;0.88;;;24.60;52.60;;;;;;4932834;29;20200;-61
2022/03/27 05:34:52;;;;;;;0.82;0.68;;;24.50;52.40;;;;;;4932994;29;20231;-61
2022/03/27 05:37:24;;;;;;;1.65;1.02;;;24.50;52.50;;;;;;4932354;29;20341;-60
2022/03/27 05:39:55;;;;;;;1.13;0.88;;;24.50;52.40;;;;;;4933531;29;20280;-60
2022/03/27 05:42:25;;;;;;;1.30;0.95;;;24.50;52.30;;;;;;4932988;29;20208;-61
2022/03/27 05:44:56;;;;;;;1.85;0.90;;;24.50;52.40;;;;;;4933454;29;20208;-61
2022/03/27 05:47:26;;;;;;;1.35;0.90;;;24.50;52.40;;;;;;4932994;29;20294;-61
2022/03/27 05:49:57;;;;;;;1.60;0.90;;;24.50;52.40;;;;;;4933175;29;20255;-61
2022/03/27 05:52:31;;;;;;;1.20;0.85;;;24.50;52.40;;;;;;4932933;29;20199;-59
2022/03/27 05:55:01;;;;;;;1.33;0.80;;;24.40;52.30;;;;;;4933700;29;20598;-61
2022/03/27 05:57:32;;;;;;;1.38;0.93;;;24.40;52.30;;;;;;4932608;29;20215;-61
2022/03/27 06:00:04;;;;;;;1.52;0.93;;;24.40;52.40;;;;;;4933244;29;20291;-61
2022/03/27 06:02:35;;;;;;;1.33;1.00;;;24.40;52.40;;;;;;4933144;29;20230;-61
2022/03/27 06:05:06;;;;;;;1.73;0.85;;;24.40;52.40;;;;;;4933484;29;20196;-61
2022/03/27 06:07:45;;;;;;;2.58;1.00;;;24.30;52.40;;;;;;4933071;29;20215;-60
2022/03/27 06:10:16;;;;;;;1.55;0.80;;;24.30;52.40;;;;;;4933032;29;20263;-59
2022/03/27 06:12:47;;;;;;;1.33;0.80;;;24.30;52.50;;;;;;4931731;29;20243;-59
2022/03/27 06:15:18;;;;;;;1.52;1.00;;;24.30;52.50;;;;;;4932525;29;20223;-59
2022/03/27 06:17:50;;;;;;;1.73;0.90;;;24.20;52.60;;;;;;4932826;29;20247;-55
2022/03/27 06:20:23;;;;;;;1.35;0.90;;;24.20;52.60;;;;;;4932230;29;20235;-59
2022/03/27 06:22:56;;;;;;;1.38;1.00;;;24.20;52.70;;;;;;4932369;29;20195;-58
2022/03/27 06:25:28;;;;;;;1.83;0.98;;;24.20;52.80;;;;;;4931577;29;20227;-58
2022/03/27 06:27:59;;;;;;;1.00;0.90;;;24.20;52.70;;;;;;4932251;29;20335;-58
2022/03/27 06:30:30;;;;;;;2.60;0.90;;;24.20;52.70;;;;;;4932075;29;20262;-59
2022/03/27 06:33:02;;;;;;;1.90;1.00;;;24.20;52.80;;;;;;4932646;29;20259;-58
2022/03/27 06:35:33;;;;;;;0.85;0.73;;;24.10;52.80;;;;;;4933398;29;20294;-58
2022/03/27 06:38:06;;;;;;;1.33;0.93;;;24.10;52.70;;;;;;4932418;29;20219;-58
2022/03/27 06:40:36;;;;;;;1.27;0.98;;;24.00;52.80;;;;;;4933107;29;20227;-59
2022/03/27 06:43:07;;;;;;;1.65;0.88;;;24.00;52.80;;;;;;4932277;29;20262;-59
2022/03/27 06:45:38;;;;;;;2.25;0.93;;;24.00;52.80;;;;;;4932784;28;20235;-59
2022/03/27 06:48:09;;;;;;;1.05;0.95;;;24.00;52.80;;;;;;4932442;29;20294;-58
2022/03/27 06:50:41;;;;;;;1.10;0.90;;;23.90;52.80;;;;;;4932829;29;20196;-58
2022/03/27 06:53:14;;;;;;;1.45;1.10;;;23.90;52.80;;;;;;4932360;29;20687;-58
2022/03/27 06:55:45;;;;;;;1.00;0.90;;;23.90;52.90;;;;;;4932007;29;20661;-59
2022/03/27 06:58:15;;;;;;;1.15;0.80;;;23.80;52.80;;;;;;4932221;29;20223;-58
2022/03/27 07:03:32;;;;;;;1.52;0.90;;;23.80;53.00;;;;;;4932103;29;20207;-59
2022/03/27 07:06:03;;;;;;;0.93;0.70;;;23.70;53.00;;;;;;4931922;29;20259;-59
2022/03/27 07:08:36;;;;;;;1.75;1.00;;;23.70;53.00;;;;;;4931223;29;20215;-55
2022/03/27 07:11:07;;;;;;;0.88;0.77;;;23.70;53.00;;;;;;4931108;29;20215;-58
2022/03/27 07:13:38;;;;;;;1.63;0.90;;;23.70;53.20;;;;;;4931577;29;20296;-58
2022/03/27 07:16:08;;;;;;;1.00;0.82;;;23.70;53.20;;;;;;4931018;29;20914;-59
2022/03/27 07:18:39;;;;;;;1.20;0.85;;;23.70;53.20;;;;;;4931589;29;20219;-58
2022/03/27 07:21:10;;;;;;;1.45;1.00;;;23.60;53.10;;;;;;4930855;29;20199;-58
2022/03/27 07:23:42;;;;;;;1.75;1.02;;;23.60;53.10;;;;;;4931530;29;20200;-59
2022/03/27 07:26:13;;;;;;;1.02;0.80;;;23.60;53.20;;;;;;4932042;29;20191;-57
2022/03/27 07:28:43;;;;;;;1.25;1.00;;;23.50;53.20;;;;;;4931225;29;20219;-59
2022/03/27 07:31:14;;;;;;;1.23;1.00;;;23.50;53.80;;;;;;4931764;29;20727;-59
2022/03/27 07:36:14;;;;;;;1.15;1.00;;;23.40;53.20;;;;;;4948812;29;20229;-58
2022/03/27 07:38:46;;;;;;;2.55;1.02;;;23.40;53.30;;;;;;4950155;28;20285;-59
2022/03/27 07:41:17;;;;;;;1.15;0.80;;;23.40;53.30;;;;;;4949895;28;20221;-59
2022/03/27 07:43:47;;;;;;;1.17;0.95;;;23.40;53.30;;;;;;4950185;28;20343;-59
2022/03/27 07:46:18;;;;;;;0.80;0.80;;;23.40;53.40;;;;;;4950737;28;20242;-59
2022/03/27 07:48:49;;;;;;;1.20;0.98;;;23.30;53.40;;;;;;4949841;28;20313;-58
2022/03/27 07:51:19;;;;;;;1.02;0.90;;;23.30;53.50;;;;;;4950528;28;20199;-58
2022/03/27 07:53:52;;;;;;;1.45;1.00;;;23.30;53.50;;;;;;4950316;28;20568;-59
2022/03/27 07:56:23;;;;;;;0.95;0.90;;;23.30;53.60;;;;;;4949108;28;20215;-59
2022/03/27 07:58:53;;;;;;;1.00;0.90;;;23.30;53.60;;;;;;4950102;28;20254;-59
2022/03/27 08:01:24;;;;;;;1.92;1.08;;;23.20;53.60;;;;;;4950371;28;20201;-59
2022/03/27 08:03:56;;;;;;;1.20;0.80;;;23.20;53.60;;;;;;4951106;28;20234;-59
2022/03/27 08:06:27;;;;;;;1.02;0.93;;;23.20;53.70;;;;;;4950235;28;20190;-59
2022/03/27 08:09:00;;;;;;;1.55;1.02;;;23.20;53.70;;;;;;4949780;28;20769;-59
2022/03/27 08:11:31;;;;;;;1.10;1.00;;;23.10;53.70;;;;;;4949471;28;20282;-58
2022/03/27 08:14:02;;;;;;;1.10;0.73;;;23.20;53.70;;;;;;4950382;28;20234;-59
2022/03/27 08:16:32;;;;;;;2.13;1.25;;;23.10;53.70;;;;;;4950716;28;20198;-58
2022/03/27 08:19:03;;;;;;;0.90;0.82;;;23.10;53.70;;;;;;4948613;28;20429;-59
2022/03/27 08:21:33;;;;;;;1.30;1.00;;;23.10;53.80;;;;;;4948126;28;20210;-58
2022/03/27 08:24:06;;;;;;;1.30;1.00;;;23.00;53.80;;;;;;4949762;28;20615;-58
2022/03/27 08:29:23;;;;;;;1.10;1.00;;;23.00;53.80;;;;;;4949911;29;20581;-58
2022/03/27 08:31:55;;;;;;;1.05;0.80;;;23.00;53.90;;;;;;4950327;28;20242;-58
2022/03/27 08:34:26;;;;;;;2.00;1.00;;;23.00;53.90;;;;;;4956247;23;20635;-56
2022/03/27 08:36:57;;;;;;;1.73;0.93;;;23.00;53.90;;;;;;4930993;29;20626;-68
2022/03/27 08:39:29;;;;;;;2.83;1.00;;;22.90;53.90;;;;;;4930514;29;20219;-67
2022/03/27 08:42:00;;;;;;;1.17;1.00;;;22.90;53.90;;;;;;4930145;29;20254;-64
2022/03/27 08:44:34;;;;;;;2.08;1.30;;;22.90;53.90;;;;;;4929829;29;20638;-63
2022/03/27 08:47:11;;;;;;;1.15;1.00;;;22.90;53.90;;;;;;4929795;29;20215;-50
2022/03/27 08:49:50;;;;;;;1.67;1.02;;;22.90;53.90;;;;;;4930095;29;20195;-57
2022/03/27 08:52:54;;;;;;;1.25;1.02;;;22.90;54.00;;;;;;4930021;29;20247;-65
2022/03/27 08:55:41;;;;;;;1.25;0.88;;;22.80;54.00;;;;;;4909580;29;20836;-55
2022/03/27 08:58:12;;;;;;;0.90;0.90;;;22.90;54.10;;;;;;4929663;29;20212;-65
2022/03/27 09:00:44;;;;;;;1.33;0.82;;;22.80;54.00;;;;;;4930537;29;20360;-66
2022/03/27 09:03:14;;;;;;;0.80;0.80;;;22.80;54.00;;;;;;4930023;29;20199;-62
2022/03/27 09:05:45;;;;;;;0.88;0.88;;;22.80;54.10;;;;;;4929681;29;20247;-56
2022/03/27 09:08:16;;;;;;;1.23;0.93;;;22.80;54.10;;;;;;4931059;29;20294;-62
2022/03/27 09:10:48;;;;;;;1.52;0.95;;;22.70;54.10;;;;;;4934285;29;20300;-67
2022/03/27 09:13:20;;;;;;;1.27;0.90;;;22.70;54.10;;;;;;4933540;29;20290;-67
2022/03/27 09:16:01;;;;;;;1.35;0.90;;;22.70;54.20;;;;;;4933749;29;20279;-60
2022/03/27 09:18:47;;;;;;;1.23;1.10;;;22.70;54.20;;;;;;4930681;29;20220;-59
2022/03/27 09:21:18;;;;;;;1.20;0.75;;;22.60;54.20;;;;;;4933881;29;20600;-66
2022/03/27 09:23:55;;;;;;;1.20;1.00;;;22.70;54.20;;;;;;4933244;29;20255;-62
2022/03/27 09:26:28;;;;;;;2.42;1.20;;;22.60;54.10;;;;;;4925151;29;20206;-61
2022/03/27 09:29:09;;;;;;;0.80;0.80;;;22.60;54.20;;;;;;4917617;29;20220;-63
2022/03/27 09:31:39;;;;;;;0.93;0.93;;;22.60;54.20;;;;;;4916666;29;20200;-63
2022/03/27 09:34:10;;;;;;;2.10;1.10;;;22.60;54.20;;;;;;4916819;29;20284;-57
2022/03/27 09:36:46;;;;;;;1.90;1.15;;;22.60;54.20;;;;;;4915934;29;20228;-62
2022/03/27 09:39:17;;;;;;;1.85;1.27;;;22.60;54.20;;;;;;4916241;29;20605;-64
2022/03/27 09:41:51;;;;;;;1.25;1.02;;;22.60;54.20;;;;;;4915796;29;20239;-66
2022/03/27 09:44:22;;;;;;;1.63;0.90;;;22.60;54.30;;;;;;4916001;29;20660;-65
2022/03/27 09:46:55;;;;;;;1.30;0.88;;;22.60;54.30;;;;;;4915323;29;20200;-61
2022/03/27 09:49:39;;;;;;;1.17;0.98;;;22.50;54.30;;;;;;4915721;29;20208;-65
2022/03/27 09:52:12;;;;;;;1.30;0.98;;;22.50;54.40;;;;;;4918231;29;20200;-65
2022/03/27 09:54:54;;;;;;;0.93;0.90;;;22.50;54.40;;;;;;4934987;29;20196;-64
2022/03/27 09:57:28;;;;;;;1.38;1.00;;;22.50;54.40;;;;;;4920189;29;20816;-63
2022/03/27 09:59:59;;;;;;;2.55;1.10;;;22.50;54.40;;;;;;4915884;29;20228;-65
2022/03/27 10:02:31;;;;;;;2.28;1.13;;;22.50;54.40;;;;;;4915750;29;20248;-64
2022/03/27 10:05:04;;;;;;;2.42;1.30;;;22.50;54.50;;;;;;4915374;29;20204;-64
2022/03/27 10:07:39;;;;;;;1.88;1.38;;;22.40;54.40;;;;;;4915080;29;20252;-65
2022/03/27 10:10:11;;;;;;;1.15;0.90;;;22.40;54.50;;;;;;4917331;29;20196;-66
2022/03/27 10:12:44;;;;;;;1.30;1.13;;;22.40;54.40;;;;;;4916463;29;20268;-66
2022/03/27 10:15:16;;;;;;;1.85;1.30;;;22.40;54.50;;;;;;4916359;29;20204;-63
2022/03/27 10:17:50;;;;;;;3.22;1.40;;;22.40;54.50;;;;;;4915741;29;20243;-63
2022/03/27 10:20:22;;;;;;;1.90;1.05;;;22.40;54.50;;;;;;4914801;29;20255;-63
2022/03/27 10:23:02;;;;;;;1.80;1.13;;;22.40;54.50;;;;;;4923024;29;20234;-64
2022/03/27 10:25:40;;;;;;;1.55;1.00;;;22.40;54.50;;;;;;4934710;29;20227;-61
2022/03/27 10:28:13;;;;;;;1.50;1.10;;;22.40;54.50;;;;;;4915276;29;20224;-57
2022/03/27 10:30:44;;;;;;;2.13;1.00;;;22.30;54.50;;;;;;4914921;29;20224;-56
2022/03/27 10:33:15;;;;;;;2.88;1.20;;;22.30;54.50;;;;;;4914826;29;20259;-63
2022/03/27 10:35:54;;;;;;;1.45;1.05;;;22.30;54.50;;;;;;4914693;29;20615;-64
2022/03/27 10:38:44;;;;;;;1.50;1.20;;;22.30;54.60;;;;;;4914715;29;20224;-58
2022/03/27 10:41:20;;;;;;;2.47;1.20;;;22.30;54.60;;;;;;4914496;29;20220;-62
2022/03/27 10:43:59;;;;;;;1.30;1.20;;;22.30;54.60;;;;;;4914575;29;20208;-60
2022/03/27 10:46:30;;;;;;;1.65;1.00;;;22.30;54.60;;;;;;4914760;29;20204;-59
2022/03/27 10:49:14;;;;;;;1.33;1.00;;;22.20;54.60;;;;;;4914778;29;20232;-60
2022/03/27 10:51:45;;;;;;;2.28;1.10;;;22.30;54.70;;;;;;4913885;29;20204;-64
2022/03/27 10:54:18;;;;;;;1.20;1.05;;;22.20;54.60;;;;;;4914313;29;20494;-58
2022/03/27 10:56:50;;;;;;;1.52;1.20;;;22.20;54.70;;;;;;4914062;29;20279;-63
2022/03/27 10:59:24;;;;;;;1.33;1.02;;;22.20;54.60;;;;;;4914298;29;20204;-63
2022/03/27 11:01:55;;;;;;;1.67;1.13;;;22.20;54.60;;;;;;4914127;29;20231;-60
2022/03/27 11:04:40;;;;;;;2.20;1.20;;;22.20;54.70;;;;;;4913586;29;20275;-66
2022/03/27 11:07:24;;;;;;;1.45;0.95;;;22.20;54.70;;;;;;4913641;29;20220;-63
2022/03/27 11:09:55;;;;;;;1.58;1.13;;;22.10;54.70;;;;;;4913126;29;20673;-65
2022/03/27 11:12:32;;;;;;;1.75;1.48;;;22.10;54.70;;;;;;4912807;29;20196;-62
2022/03/27 11:15:08;;;;;;;1.52;1.30;;;22.10;54.70;;;;;;4914302;29;20716;-63
2022/03/27 11:17:44;;;;;;;1.08;0.93;;;22.10;54.70;;;;;;4914264;29;20275;-64
2022/03/27 11:20:34;;;;;;;2.05;1.00;;;22.10;54.70;;;;;;4913943;29;20232;-66
2022/03/27 11:23:08;;;;;;;1.85;1.30;;;22.10;54.70;;;;;;4913615;29;20196;-54
2022/03/27 11:25:46;;;;;;;2.00;1.10;;;22.10;54.80;;;;;;4913996;29;20656;-66
2022/03/27 11:28:18;;;;;;;1.38;1.20;;;22.10;54.80;;;;;;4913651;29;20220;-64
2022/03/27 11:31:22;;;;;;;2.15;1.45;;;22.10;54.80;;;;;;4913938;29;20200;-65
2022/03/27 11:34:20;;;;;;;1.77;1.40;;;22.00;54.70;;;;;;4914697;29;20203;-63
2022/03/27 11:37:22;;;;;;;1.63;1.20;;;22.10;54.80;;;;;;4895188;29;20204;-63
2022/03/27 11:39:53;;;;;;;1.13;1.02;;;22.00;54.70;;;;;;4895046;29;20251;-65
2022/03/27 11:42:32;;;;;;;1.27;1.17;;;22.00;54.80;;;;;;4903550;29;20216;-65
2022/03/27 11:45:26;;;;;;;1.23;1.00;;;22.00;54.80;;;;;;4913676;29;20208;-64
2022/03/27 11:47:59;;;;;;;2.03;0.95;;;21.90;54.80;;;;;;4914025;29;20764;-61
2022/03/27 11:50:34;;;;;;;1.15;1.05;;;22.00;54.90;;;;;;4914087;29;20215;-63
2022/03/27 11:53:05;;;;;;;1.48;1.10;;;21.90;54.80;;;;;;4913700;29;20197;-60
2022/03/27 11:55:37;;;;;;;1.55;1.33;;;21.90;54.90;;;;;;4913462;29;20232;-61
2022/03/27 11:58:08;;;;;;;1.58;1.20;;;21.90;54.90;;;;;;4913320;29;20251;-61
2022/03/27 12:00:40;;;;;;;1.27;0.98;;;21.90;54.90;;;;;;4913861;29;20216;-61
2022/03/27 12:03:20;;;;;;;1.77;1.30;;;21.90;54.90;;;;;;4913911;29;20215;-64
2022/03/27 12:05:52;;;;;;;1.92;1.10;;;21.90;54.90;;;;;;4913464;29;20254;-58
2022/03/27 12:08:33;;;;;;;1.20;1.10;;;21.90;54.90;;;;;;4913307;29;20220;-64
2022/03/27 12:11:06;;;;;;;1.77;1.23;;;21.90;55.00;;;;;;4913303;29;20200;-58
2022/03/27 12:13:44;;;;;;;1.90;0.98;;;21.80;54.90;;;;;;4912762;29;20200;-63
2022/03/27 12:16:20;;;;;;;1.40;1.20;;;21.90;55.00;;;;;;4913671;29;20196;-62
2022/03/27 12:18:53;;;;;;;1.50;1.17;;;21.90;55.00;;;;;;4912819;29;20208;-63
2022/03/27 12:21:24;;;;;;;1.33;1.20;;;21.90;55.00;;;;;;4913002;29;20279;-53
2022/03/27 12:23:56;;;;;;;1.38;1.10;;;21.80;55.00;;;;;;4913126;29;20203;-61
2022/03/27 12:32:07;;;;;;;1.70;1.05;;;21.80;55.00;;;;;;4894730;29;20612;-57
2022/03/27 12:34:46;;;;;;;1.20;1.10;;;21.80;55.00;;;;;;4900340;29;20224;-63
2022/03/27 12:37:18;;;;;;;1.33;1.23;;;21.80;55.00;;;;;;4913041;29;20275;-63
2022/03/27 12:40:08;;;;;;;1.58;1.05;;;21.80;55.10;;;;;;4913171;29;20211;-60
2022/03/27 12:42:43;;;;;;;1.10;1.00;;;21.70;55.00;;;;;;4915282;29;20231;-63
2022/03/27 12:45:17;;;;;;;1.15;1.00;;;21.80;55.10;;;;;;4917279;29;20196;-65
2022/03/27 12:47:49;;;;;;;1.52;1.20;;;21.70;55.00;;;;;;4916947;29;20299;-65
2022/03/27 12:50:37;;;;;;;1.88;1.10;;;21.70;55.10;;;;;;4917014;29;20259;-63
2022/03/27 12:53:09;;;;;;;1.45;1.30;;;21.70;55.10;;;;;;4917202;29;20206;-65
2022/03/27 12:55:50;;;;;;;1.45;1.20;;;21.70;55.10;;;;;;4916710;29;20699;-64
2022/03/27 12:58:22;;;;;;;1.23;1.13;;;21.70;55.10;;;;;;4915926;29;20358;-61
2022/03/27 13:01:08;;;;;;;1.42;1.33;;;21.70;55.20;;;;;;4916379;29;20220;-63
2022/03/27 13:03:39;;;;;;;1.83;1.10;;;21.70;55.10;;;;;;4916787;29;20822;-65
2022/03/27 13:06:12;;;;;;;2.35;1.30;;;21.70;55.10;;;;;;4910962;29;20209;-65
2022/03/27 13:08:58;;;;;;;1.27;1.17;;;21.70;55.10;;;;;;4912164;29;20263;-64
2022/03/27 13:11:29;;;;;;;1.75;1.10;;;21.70;55.20;;;;;;4916532;29;20200;-65
2022/03/27 13:14:02;;;;;;;1.15;0.95;;;21.60;55.10;;;;;;4916692;29;20196;-63
2022/03/27 13:16:34;;;;;;;1.92;1.10;;;21.70;55.30;;;;;;4916683;29;20736;-63
2022/03/27 13:19:07;;;;;;;1.20;1.10;;;21.60;55.10;;;;;;4916627;29;20232;-57
2022/03/27 13:21:40;;;;;;;1.33;1.13;;;21.60;55.20;;;;;;4916425;29;20700;-64
2022/03/27 13:24:12;;;;;;;1.52;1.20;;;21.60;55.20;;;;;;4916617;29;20748;-63
2022/03/27 13:26:47;;;;;;;2.00;1.10;;;21.60;55.20;;;;;;4916173;29;20212;-64
2022/03/27 13:29:18;;;;;;;1.20;1.10;;;21.60;55.20;;;;;;4916121;29;20204;-67
2022/03/27 13:31:49;;;;;;;1.98;1.10;;;21.60;55.20;;;;;;4916431;29;20197;-67
2022/03/27 13:34:21;;;;;;;1.02;0.93;;;21.60;55.20;;;;;;4916798;29;20219;-59
2022/03/27 13:36:55;;;;;;;1.35;1.25;;;21.60;55.20;;;;;;4916149;29;20204;-66